sensor_id;sensor_type;location;lat;lon;timestamp;P1;durP1;ratioP1;P2;durP2;ratioP2
46597;SDS011;32318;48.858;8.252;2022-10-10T00:05:00;13.20;;;3.40;;
46597;SDS011;32318;48.858;8.252;2022-10-10T00:13:00;8.57;;;3.47;;
46597;SDS011;32318;48.858;8.252;2022-10-10T00:21:02;6.07;;;4.05;;
46597;SDS011;32318;48.858;8.252;2022-10-10T00:29:02;9.03;;;3.80;;
46597;SDS011;32318;48.858;8.252;2022-10-10T00:37:03;10.10;;;4.07;;
46597;SDS011;32318;48.858;8.252;2022-10-10T00:53:22;14.68;;;3.90;;
46597;SDS011;32318;48.858;8.252;2022-10-10T01:01:26;8.80;;;3.33;;
46597;SDS011;32318;48.858;8.252;2022-10-10T01:09:26;8.70;;;4.00;;
46597;SDS011;32318;48.858;8.252;2022-10-10T01:17:37;12.30;;;4.65;;
46597;SDS011;32318;48.858;8.252;2022-10-10T01:34:06;7.75;;;4.22;;
46597;SDS011;32318;48.858;8.252;2022-10-10T01:42:24;10.82;;;4.03;;
46597;SDS011;32318;48.858;8.252;2022-10-10T01:50:31;10.32;;;4.15;;
46597;SDS011;32318;48.858;8.252;2022-10-10T01:59:21;13.95;;;4.35;;
46597;SDS011;32318;48.858;8.252;2022-10-10T02:07:10;11.90;;;3.70;;
46597;SDS011;32318;48.858;8.252;2022-10-10T02:15:21;7.63;;;4.00;;
46597;SDS011;32318;48.858;8.252;2022-10-10T02:23:24;8.70;;;3.63;;
46597;SDS011;32318;48.858;8.252;2022-10-10T02:31:33;5.72;;;3.53;;
46597;SDS011;32318;48.858;8.252;2022-10-10T02:39:40;9.18;;;3.80;;
46597;SDS011;32318;48.858;8.252;2022-10-10T02:47:44;14.57;;;4.30;;
46597;SDS011;32318;48.858;8.252;2022-10-10T02:55:44;7.88;;;3.45;;
46597;SDS011;32318;48.858;8.252;2022-10-10T03:03:44;11.57;;;4.75;;
46597;SDS011;32318;48.858;8.252;2022-10-10T03:11:45;9.18;;;4.30;;
46597;SDS011;32318;48.858;8.252;2022-10-10T03:19:45;18.73;;;4.80;;
46597;SDS011;32318;48.858;8.252;2022-10-10T03:27:45;19.05;;;4.50;;
46597;SDS011;32318;48.858;8.252;2022-10-10T03:35:46;10.95;;;4.15;;
46597;SDS011;32318;48.858;8.252;2022-10-10T03:43:46;13.43;;;4.15;;
46597;SDS011;32318;48.858;8.252;2022-10-10T03:51:47;11.73;;;4.20;;
46597;SDS011;32318;48.858;8.252;2022-10-10T03:59:47;8.18;;;4.30;;
46597;SDS011;32318;48.858;8.252;2022-10-10T04:07:47;17.30;;;4.55;;
46597;SDS011;32318;48.858;8.252;2022-10-10T04:15:51;10.32;;;4.18;;
46597;SDS011;32318;48.858;8.252;2022-10-10T04:23:53;10.60;;;4.50;;
46597;SDS011;32318;48.858;8.252;2022-10-10T04:31:53;16.17;;;4.38;;
46597;SDS011;32318;48.858;8.252;2022-10-10T04:39:53;7.63;;;4.40;;
46597;SDS011;32318;48.858;8.252;2022-10-10T04:47:54;8.98;;;4.22;;
46597;SDS011;32318;48.858;8.252;2022-10-10T04:55:54;12.40;;;4.35;;
46597;SDS011;32318;48.858;8.252;2022-10-10T05:03:54;13.13;;;4.65;;
46597;SDS011;32318;48.858;8.252;2022-10-10T05:11:55;16.00;;;5.20;;
46597;SDS011;32318;48.858;8.252;2022-10-10T05:19:55;16.13;;;5.40;;
46597;SDS011;32318;48.858;8.252;2022-10-10T05:27:55;16.13;;;4.88;;
46597;SDS011;32318;48.858;8.252;2022-10-10T05:36:29;11.15;;;4.13;;
46597;SDS011;32318;48.858;8.252;2022-10-10T05:44:22;9.07;;;4.40;;
46597;SDS011;32318;48.858;8.252;2022-10-10T05:52:22;14.32;;;4.50;;
46597;SDS011;32318;48.858;8.252;2022-10-10T06:00:23;16.25;;;4.55;;
46597;SDS011;32318;48.858;8.252;2022-10-10T06:08:24;8.82;;;3.90;;
46597;SDS011;32318;48.858;8.252;2022-10-10T06:16:25;18.00;;;4.35;;
46597;SDS011;32318;48.858;8.252;2022-10-10T06:24:26;8.00;;;3.85;;
46597;SDS011;32318;48.858;8.252;2022-10-10T06:32:26;8.93;;;4.45;;
46597;SDS011;32318;48.858;8.252;2022-10-10T06:40:26;17.83;;;5.15;;
46597;SDS011;32318;48.858;8.252;2022-10-10T06:48:27;9.52;;;4.30;;
46597;SDS011;32318;48.858;8.252;2022-10-10T06:56:29;15.63;;;6.07;;
46597;SDS011;32318;48.858;8.252;2022-10-10T07:04:29;12.88;;;5.32;;
46597;SDS011;32318;48.858;8.252;2022-10-10T07:12:30;19.98;;;6.35;;
46597;SDS011;32318;48.858;8.252;2022-10-10T07:20:30;15.27;;;4.90;;
46597;SDS011;32318;48.858;8.252;2022-10-10T07:28:31;10.73;;;4.83;;
46597;SDS011;32318;48.858;8.252;2022-10-10T07:36:31;16.17;;;4.60;;
46597;SDS011;32318;48.858;8.252;2022-10-10T07:44:32;15.30;;;4.70;;
46597;SDS011;32318;48.858;8.252;2022-10-10T07:52:33;10.48;;;4.18;;
46597;SDS011;32318;48.858;8.252;2022-10-10T08:00:35;20.75;;;5.43;;
46597;SDS011;32318;48.858;8.252;2022-10-10T08:08:39;11.48;;;5.30;;
46597;SDS011;32318;48.858;8.252;2022-10-10T08:16:40;15.50;;;4.93;;
46597;SDS011;32318;48.858;8.252;2022-10-10T08:24:41;13.05;;;5.80;;
46597;SDS011;32318;48.858;8.252;2022-10-10T08:32:41;15.68;;;5.78;;
46597;SDS011;32318;48.858;8.252;2022-10-10T08:40:45;26.58;;;6.70;;
46597;SDS011;32318;48.858;8.252;2022-10-10T08:48:48;36.40;;;9.45;;
46597;SDS011;32318;48.858;8.252;2022-10-10T08:56:50;48.20;;;7.68;;
46597;SDS011;32318;48.858;8.252;2022-10-10T09:04:55;21.65;;;6.40;;
46597;SDS011;32318;48.858;8.252;2022-10-10T09:13:03;21.80;;;6.18;;
46597;SDS011;32318;48.858;8.252;2022-10-10T09:21:14;19.55;;;6.18;;
46597;SDS011;32318;48.858;8.252;2022-10-10T09:29:29;14.30;;;5.85;;
46597;SDS011;32318;48.858;8.252;2022-10-10T09:37:38;14.73;;;6.00;;
46597;SDS011;32318;48.858;8.252;2022-10-10T09:45:41;13.60;;;5.32;;
46597;SDS011;32318;48.858;8.252;2022-10-10T09:53:47;15.93;;;4.05;;
46597;SDS011;32318;48.858;8.252;2022-10-10T10:02:00;13.55;;;3.20;;
46597;SDS011;32318;48.858;8.252;2022-10-10T10:10:16;12.55;;;3.40;;
46597;SDS011;32318;48.858;8.252;2022-10-10T10:18:23;8.45;;;2.95;;
46597;SDS011;32318;48.858;8.252;2022-10-10T11:16:21;24.25;;;3.65;;
46597;SDS011;32318;48.858;8.252;2022-10-10T11:24:29;10.05;;;2.13;;
46597;SDS011;32318;48.858;8.252;2022-10-10T11:32:46;36.97;;;3.95;;
46597;SDS011;32318;48.858;8.252;2022-10-10T11:41:03;15.13;;;4.00;;
46597;SDS011;32318;48.858;8.252;2022-10-10T11:57:37;8.73;;;2.80;;
46597;SDS011;32318;48.858;8.252;2022-10-10T12:05:45;15.75;;;2.67;;
46597;SDS011;32318;48.858;8.252;2022-10-10T12:13:54;16.90;;;3.22;;
46597;SDS011;32318;48.858;8.252;2022-10-10T12:22:00;15.35;;;2.95;;
46597;SDS011;32318;48.858;8.252;2022-10-10T12:38:14;11.88;;;2.60;;
46597;SDS011;32318;48.858;8.252;2022-10-10T12:46:28;11.63;;;2.70;;
46597;SDS011;32318;48.858;8.252;2022-10-10T12:54:32;18.23;;;2.63;;
46597;SDS011;32318;48.858;8.252;2022-10-10T13:02:37;23.70;;;3.17;;
46597;SDS011;32318;48.858;8.252;2022-10-10T13:10:42;9.63;;;2.42;;
46597;SDS011;32318;48.858;8.252;2022-10-10T13:19:01;13.18;;;2.30;;
46597;SDS011;32318;48.858;8.252;2022-10-10T13:27:01;16.17;;;3.35;;
46597;SDS011;32318;48.858;8.252;2022-10-10T13:35:05;10.90;;;2.30;;
46597;SDS011;32318;48.858;8.252;2022-10-10T13:43:12;17.83;;;2.53;;
46597;SDS011;32318;48.858;8.252;2022-10-10T13:51:15;23.35;;;3.33;;
46597;SDS011;32318;48.858;8.252;2022-10-10T13:59:15;19.73;;;2.50;;
46597;SDS011;32318;48.858;8.252;2022-10-10T14:07:20;15.48;;;2.97;;
46597;SDS011;32318;48.858;8.252;2022-10-10T14:15:33;12.13;;;3.13;;
46597;SDS011;32318;48.858;8.252;2022-10-10T14:23:37;8.73;;;2.95;;
46597;SDS011;32318;48.858;8.252;2022-10-10T14:31:37;28.42;;;2.85;;
46597;SDS011;32318;48.858;8.252;2022-10-10T14:39:38;22.88;;;3.03;;
46597;SDS011;32318;48.858;8.252;2022-10-10T14:47:38;21.83;;;3.05;;
46597;SDS011;32318;48.858;8.252;2022-10-10T14:55:38;16.98;;;4.03;;
46597;SDS011;32318;48.858;8.252;2022-10-10T15:03:42;20.20;;;3.53;;
46597;SDS011;32318;48.858;8.252;2022-10-10T15:11:42;19.50;;;3.20;;
46597;SDS011;32318;48.858;8.252;2022-10-10T15:19:43;21.27;;;3.63;;
46597;SDS011;32318;48.858;8.252;2022-10-10T15:27:43;18.88;;;3.15;;
46597;SDS011;32318;48.858;8.252;2022-10-10T15:35:43;19.65;;;3.03;;
46597;SDS011;32318;48.858;8.252;2022-10-10T15:43:45;29.27;;;3.28;;
46597;SDS011;32318;48.858;8.252;2022-10-10T15:51:51;15.13;;;3.22;;
46597;SDS011;32318;48.858;8.252;2022-10-10T15:59:51;14.90;;;3.50;;
46597;SDS011;32318;48.858;8.252;2022-10-10T16:07:52;14.50;;;2.78;;
46597;SDS011;32318;48.858;8.252;2022-10-10T16:15:58;21.38;;;2.90;;
46597;SDS011;32318;48.858;8.252;2022-10-10T16:24:01;13.95;;;2.72;;
46597;SDS011;32318;48.858;8.252;2022-10-10T16:32:01;18.25;;;3.80;;
46597;SDS011;32318;48.858;8.252;2022-10-10T16:40:02;10.68;;;4.25;;
46597;SDS011;32318;48.858;8.252;2022-10-10T16:48:02;21.40;;;4.25;;
46597;SDS011;32318;48.858;8.252;2022-10-10T16:56:04;23.00;;;4.38;;
46597;SDS011;32318;48.858;8.252;2022-10-10T17:04:06;29.98;;;3.92;;
46597;SDS011;32318;48.858;8.252;2022-10-10T17:12:07;16.00;;;3.10;;
46597;SDS011;32318;48.858;8.252;2022-10-10T17:20:07;18.02;;;3.20;;
46597;SDS011;32318;48.858;8.252;2022-10-10T17:28:08;20.60;;;4.03;;
46597;SDS011;32318;48.858;8.252;2022-10-10T17:36:18;18.25;;;3.70;;
46597;SDS011;32318;48.858;8.252;2022-10-10T17:44:20;24.33;;;5.05;;
46597;SDS011;32318;48.858;8.252;2022-10-10T17:52:22;16.90;;;4.50;;
46597;SDS011;32318;48.858;8.252;2022-10-10T18:00:24;24.05;;;5.03;;
46597;SDS011;32318;48.858;8.252;2022-10-10T18:08:24;18.88;;;4.13;;
46597;SDS011;32318;48.858;8.252;2022-10-10T18:16:25;20.17;;;4.37;;
46597;SDS011;32318;48.858;8.252;2022-10-10T18:24:27;35.90;;;4.63;;
46597;SDS011;32318;48.858;8.252;2022-10-10T18:32:28;21.17;;;4.47;;
46597;SDS011;32318;48.858;8.252;2022-10-10T18:40:28;21.52;;;4.45;;
46597;SDS011;32318;48.858;8.252;2022-10-10T18:48:29;17.30;;;3.42;;
46597;SDS011;32318;48.858;8.252;2022-10-10T18:56:30;28.35;;;4.28;;
46597;SDS011;32318;48.858;8.252;2022-10-10T19:04:32;25.23;;;4.78;;
46597;SDS011;32318;48.858;8.252;2022-10-10T19:12:32;18.75;;;4.28;;
46597;SDS011;32318;48.858;8.252;2022-10-10T19:20:33;18.90;;;4.18;;
46597;SDS011;32318;48.858;8.252;2022-10-10T19:28:34;26.00;;;5.88;;
46597;SDS011;32318;48.858;8.252;2022-10-10T19:36:36;16.00;;;4.20;;
46597;SDS011;32318;48.858;8.252;2022-10-10T19:44:36;20.95;;;3.72;;
46597;SDS011;32318;48.858;8.252;2022-10-10T19:52:36;22.83;;;3.95;;
46597;SDS011;32318;48.858;8.252;2022-10-10T20:00:37;15.57;;;3.85;;
46597;SDS011;32318;48.858;8.252;2022-10-10T20:08:37;36.05;;;3.88;;
46597;SDS011;32318;48.858;8.252;2022-10-10T20:16:38;21.50;;;3.93;;
46597;SDS011;32318;48.858;8.252;2022-10-10T20:24:38;19.35;;;4.18;;
46597;SDS011;32318;48.858;8.252;2022-10-10T20:32:39;32.90;;;3.15;;
46597;SDS011;32318;48.858;8.252;2022-10-10T20:40:40;10.85;;;2.60;;
46597;SDS011;32318;48.858;8.252;2022-10-10T20:48:41;16.95;;;2.63;;
46597;SDS011;32318;48.858;8.252;2022-10-10T20:56:42;13.70;;;2.47;;
46597;SDS011;32318;48.858;8.252;2022-10-10T21:04:43;13.93;;;2.45;;
46597;SDS011;32318;48.858;8.252;2022-10-10T21:12:44;14.20;;;1.70;;
46597;SDS011;32318;48.858;8.252;2022-10-10T21:20:44;13.45;;;1.90;;
46597;SDS011;32318;48.858;8.252;2022-10-10T21:28:45;12.20;;;1.55;;
46597;SDS011;32318;48.858;8.252;2022-10-10T21:36:45;8.70;;;2.37;;
46597;SDS011;32318;48.858;8.252;2022-10-10T21:44:46;14.50;;;2.50;;
46597;SDS011;32318;48.858;8.252;2022-10-10T21:52:46;14.60;;;2.28;;
46597;SDS011;32318;48.858;8.252;2022-10-10T22:00:47;11.63;;;2.28;;
46597;SDS011;32318;48.858;8.252;2022-10-10T22:08:47;16.77;;;2.17;;
46597;SDS011;32318;48.858;8.252;2022-10-10T22:16:49;6.65;;;2.00;;
46597;SDS011;32318;48.858;8.252;2022-10-10T22:24:49;9.95;;;2.13;;
46597;SDS011;32318;48.858;8.252;2022-10-10T22:32:49;9.52;;;2.45;;
46597;SDS011;32318;48.858;8.252;2022-10-10T22:40:50;16.40;;;2.38;;
46597;SDS011;32318;48.858;8.252;2022-10-10T22:48:50;16.65;;;2.40;;
46597;SDS011;32318;48.858;8.252;2022-10-10T22:56:54;9.38;;;2.15;;
46597;SDS011;32318;48.858;8.252;2022-10-10T23:04:54;14.15;;;2.40;;
46597;SDS011;32318;48.858;8.252;2022-10-10T23:12:55;16.52;;;3.40;;
46597;SDS011;32318;48.858;8.252;2022-10-10T23:20:55;11.02;;;2.30;;
46597;SDS011;32318;48.858;8.252;2022-10-10T23:28:55;13.70;;;2.35;;
46597;SDS011;32318;48.858;8.252;2022-10-10T23:36:56;10.75;;;2.40;;
46597;SDS011;32318;48.858;8.252;2022-10-10T23:44:56;12.13;;;2.40;;
46597;SDS011;32318;48.858;8.252;2022-10-10T23:52:56;8.25;;;2.00;;
